createdAt,value
2023-04-20T00:02:03.830Z,102059.69
2023-04-20T00:04:32.162Z,102057.31
2023-04-20T00:07:00.534Z,102062.16
2023-04-20T00:09:29.455Z,102048.19
2023-04-20T00:11:57.762Z,102054.34
2023-04-20T00:14:26.285Z,102063.16
2023-04-20T00:16:54.610Z,102054.50
2023-04-20T00:19:23.164Z,102066.09
2023-04-20T00:21:51.418Z,102058.13
2023-04-20T00:24:19.695Z,102064.56
2023-04-20T00:26:48.314Z,102065.75
2023-04-20T00:29:16.902Z,102073.13
2023-04-20T00:31:45.344Z,102070.59
2023-04-20T00:34:13.692Z,102065.28
2023-04-20T00:36:42.071Z,102071.41
2023-04-20T00:39:10.738Z,102066.72
2023-04-20T00:41:39.090Z,102081.88
2023-04-20T00:44:14.792Z,102076.97
2023-04-20T00:46:43.106Z,102083.50
2023-04-20T00:49:11.618Z,102070.25
2023-04-20T00:51:40.232Z,102071.13
2023-04-20T00:54:08.542Z,102072.28
2023-04-20T00:56:36.781Z,102074.19
2023-04-20T00:59:05.037Z,102079.53
2023-04-20T01:01:33.413Z,102081.56
2023-04-20T01:04:01.705Z,102076.44
2023-04-20T01:06:29.963Z,102073.97
2023-04-20T01:08:58.180Z,102087.44
2023-04-20T01:11:26.392Z,102079.63
2023-04-20T01:13:54.568Z,102075.28
2023-04-20T01:16:23.952Z,102086.91
2023-04-20T01:18:52.688Z,102077.31
2023-04-20T01:21:24.625Z,102072.00
2023-04-20T01:23:52.871Z,102069.34
2023-04-20T01:26:23.212Z,102080.97
2023-04-20T01:28:51.513Z,102077.44
2023-04-20T01:31:23.575Z,102082.03
2023-04-20T01:33:52.401Z,102079.69
2023-04-20T01:36:20.781Z,102064.91
2023-04-20T01:38:49.340Z,102074.88
2023-04-20T01:41:17.654Z,102080.28
2023-04-20T01:43:46.017Z,102077.59
2023-04-20T01:46:14.388Z,102069.72
2023-04-20T01:48:42.646Z,102077.19
2023-04-20T01:51:10.844Z,102081.00
2023-04-20T01:53:39.124Z,102081.34
2023-04-20T01:56:07.694Z,102090.44
2023-04-20T01:58:36.565Z,102085.25
2023-04-20T02:01:04.812Z,102085.41
2023-04-20T02:03:33.225Z,102095.25
2023-04-20T02:06:01.655Z,102102.34
2023-04-20T02:08:29.952Z,102101.56
2023-04-20T02:10:58.195Z,102097.47
2023-04-20T02:13:26.504Z,102095.88
2023-04-20T02:15:54.892Z,102096.91
2023-04-20T02:18:23.506Z,102110.38
2023-04-20T02:20:51.730Z,102106.16
2023-04-20T02:23:19.889Z,102103.66
2023-04-20T02:25:48.464Z,102108.16
2023-04-20T02:28:16.682Z,102102.94
2023-04-20T02:30:44.979Z,102109.34
2023-04-20T02:33:13.601Z,102114.03
2023-04-20T02:35:41.777Z,102113.34
2023-04-20T02:38:10.021Z,102125.97
2023-04-20T02:40:38.222Z,102127.00
2023-04-20T02:43:06.444Z,102128.09
2023-04-20T02:45:34.674Z,102122.94
2023-04-20T02:48:02.872Z,102129.25
2023-04-20T02:50:32.114Z,102129.44
2023-04-20T02:53:00.343Z,102134.88
2023-04-20T02:55:28.558Z,102132.41
2023-04-20T02:57:56.711Z,102139.59
2023-04-20T03:00:25.090Z,102144.13
2023-04-20T03:02:53.515Z,102141.59
2023-04-20T03:05:21.840Z,102148.78
2023-04-20T03:07:50.024Z,102163.00
2023-04-20T03:10:18.239Z,102165.69
2023-04-20T03:12:46.548Z,102158.69
2023-04-20T03:15:16.451Z,102163.19
2023-04-20T03:17:44.766Z,102168.53
2023-04-20T03:20:14.197Z,102169.47
2023-04-20T03:22:42.408Z,102185.47
2023-04-20T03:25:10.720Z,102180.16
2023-04-20T03:27:38.886Z,102187.34
2023-04-20T03:30:07.951Z,102193.56
2023-04-20T03:32:36.262Z,102199.84
2023-04-20T03:35:04.527Z,102209.66
2023-04-20T03:37:32.685Z,102212.38
2023-04-20T03:40:00.877Z,102228.38
2023-04-20T03:42:29.101Z,102223.09
2023-04-20T03:44:57.898Z,102226.66
2023-04-20T03:47:26.245Z,102225.81
2023-04-20T03:49:54.415Z,102229.47
2023-04-20T03:52:22.623Z,102241.94
2023-04-20T03:54:50.840Z,102232.25
2023-04-20T03:57:19.048Z,102235.88
2023-04-20T03:59:47.480Z,102245.66
2023-04-20T04:02:16.641Z,102247.50
2023-04-20T04:04:46.193Z,102263.47
2023-04-20T04:07:14.460Z,102260.88
2023-04-20T04:09:42.784Z,102262.63
2023-04-20T04:12:11.133Z,102262.69
2023-04-20T04:14:39.312Z,102273.34
2023-04-20T04:17:08.801Z,102278.75
2023-04-20T04:19:37.106Z,102286.75
2023-04-20T04:22:05.288Z,102286.75
2023-04-20T04:24:34.246Z,102295.59
2023-04-20T04:27:06.032Z,102292.06
2023-04-20T04:29:39.369Z,102285.94
2023-04-20T04:32:07.625Z,102295.72
2023-04-20T04:34:36.408Z,102293.09
2023-04-20T04:37:04.762Z,102296.63
2023-04-20T04:39:33.002Z,102294.03
2023-04-20T04:42:02.495Z,102298.53
2023-04-20T04:44:32.720Z,102299.41
2023-04-20T04:47:00.987Z,102300.28
2023-04-20T04:49:30.299Z,102307.34
2023-04-20T04:51:58.488Z,102312.69
2023-04-20T04:54:26.634Z,102313.59
2023-04-20T04:56:54.925Z,102315.34
2023-04-20T04:59:23.220Z,102320.66
2023-04-20T05:01:51.545Z,102325.09
2023-04-20T05:04:19.914Z,102325.97
2023-04-20T05:06:48.351Z,102327.75
2023-04-20T05:09:17.192Z,102326.88
2023-04-20T05:11:45.887Z,102334.88
2023-04-20T05:14:14.053Z,102326.97
2023-04-20T05:16:42.460Z,102336.72
2023-04-20T05:19:10.696Z,102330.53
2023-04-20T05:21:40.092Z,102326.13
2023-04-20T05:24:08.382Z,102334.09
2023-04-20T05:26:36.639Z,102335.88
2023-04-20T05:29:04.929Z,102326.16
2023-04-20T05:31:34.309Z,102330.56
2023-04-20T05:34:03.716Z,102327.91
2023-04-20T05:36:34.575Z,102322.63
2023-04-20T05:39:02.837Z,102334.13
2023-04-20T05:41:31.367Z,102332.38
2023-04-20T05:43:59.660Z,102336.81
2023-04-20T05:46:28.526Z,102334.13
2023-04-20T05:48:57.273Z,102335.00
2023-04-20T05:51:29.810Z,102329.75
2023-04-20T05:53:58.141Z,102330.63
2023-04-20T05:56:26.660Z,102334.16
2023-04-20T05:58:56.362Z,102329.75
2023-04-20T06:01:24.596Z,102335.94
2023-04-20T06:03:53.289Z,102328.88
2023-04-20T06:06:21.759Z,102343.06
2023-04-20T06:08:51.729Z,102337.75
2023-04-20T06:11:20.100Z,102341.31
2023-04-20T06:13:48.464Z,102339.53
2023-04-20T06:16:16.984Z,102340.50
2023-04-20T06:18:45.383Z,102340.47
2023-04-20T06:21:13.940Z,102341.38
2023-04-20T06:23:42.227Z,102343.19
2023-04-20T06:26:11.182Z,102339.66
2023-04-20T06:28:39.566Z,102354.69
2023-04-20T06:31:08.088Z,102359.13
2023-04-20T06:33:36.541Z,102362.69
2023-04-20T06:36:09.200Z,102367.13
2023-04-20T06:38:37.584Z,102368.91
2023-04-20T06:41:05.945Z,102360.94
2023-04-20T06:43:34.197Z,102368.06
2023-04-20T06:46:02.444Z,102359.22
2023-04-20T06:48:32.781Z,102366.31
2023-04-20T06:51:02.811Z,102369.88
2023-04-20T06:53:31.092Z,102372.53
2023-04-20T06:55:59.379Z,102376.06
2023-04-20T06:58:27.670Z,102382.28
2023-04-20T07:00:55.949Z,102384.06
2023-04-20T07:03:25.156Z,102382.28
2023-04-20T07:05:53.517Z,102383.19
2023-04-20T07:08:21.875Z,102383.25
2023-04-20T07:10:50.196Z,102384.13
2023-04-20T07:13:18.578Z,102384.13
2023-04-20T07:15:47.617Z,102394.75
2023-04-20T07:18:15.865Z,102392.09
2023-04-20T07:20:44.211Z,102392.09
2023-04-20T07:23:12.521Z,102392.13
2023-04-20T07:25:41.559Z,102387.69
2023-04-20T07:28:09.815Z,102378.00
2023-04-20T07:30:38.203Z,102384.19
2023-04-20T07:33:06.642Z,102385.94
2023-04-20T07:35:35.010Z,102382.41
2023-04-20T07:38:03.409Z,102378.88
2023-04-20T07:40:31.978Z,102381.53
2023-04-20T07:43:00.219Z,102383.31
2023-04-20T07:45:28.641Z,102385.97
2023-04-20T07:47:58.152Z,102378.00
2023-04-20T07:50:26.860Z,102382.44
2023-04-20T07:52:55.255Z,102385.97
2023-04-20T07:55:23.711Z,102393.91
2023-04-20T07:57:52.364Z,102394.78
2023-04-20T08:00:21.153Z,102399.22
2023-04-20T08:02:49.548Z,102396.56
2023-04-20T08:05:18.078Z,102397.44
2023-04-20T08:07:47.206Z,102385.94
2023-04-20T08:10:15.518Z,102389.53
2023-04-20T08:12:43.905Z,102385.94
2023-04-20T08:15:12.603Z,102386.81
2023-04-20T08:17:40.974Z,102383.28
2023-04-20T08:20:10.033Z,102392.97
2023-04-20T08:22:38.974Z,102385.03
2023-04-20T08:25:07.439Z,102390.31
2023-04-20T08:27:36.816Z,102383.28
2023-04-20T08:30:05.495Z,102387.66
2023-04-20T08:32:33.866Z,102375.31
2023-04-20T08:35:02.190Z,102367.41
2023-04-20T08:37:32.527Z,102375.28
2023-04-20T08:40:01.330Z,102372.66
2023-04-20T08:42:29.593Z,102374.41
2023-04-20T08:44:59.666Z,102374.38
2023-04-20T08:47:30.175Z,102368.22
2023-04-20T08:50:01.359Z,102366.47
2023-04-20T08:52:29.629Z,102373.50
2023-04-20T08:54:58.099Z,102369.97
2023-04-20T08:57:27.216Z,102362.91
2023-04-20T08:59:56.488Z,102365.56
2023-04-20T09:02:24.938Z,102364.66
2023-04-20T09:05:04.924Z,102370.81
2023-04-20T09:07:33.516Z,102368.13
2023-04-20T09:10:02.455Z,102361.97
2023-04-20T09:12:41.777Z,102370.78
2023-04-20T09:15:11.617Z,102374.28
2023-04-20T09:17:41.968Z,102365.47
2023-04-20T09:20:12.125Z,102374.28
2023-04-20T09:22:44.178Z,102361.94
2023-04-20T09:25:19.977Z,102369.84
2023-04-20T09:28:02.832Z,102369.84
2023-04-20T09:30:46.603Z,102369.81
2023-04-20T09:33:15.516Z,102368.94
2023-04-20T09:35:45.035Z,102372.44
2023-04-20T09:38:17.945Z,102372.41
2023-04-20T09:40:46.771Z,102375.03
2023-04-20T09:43:24.372Z,102374.16
2023-04-20T09:45:53.106Z,102374.19
2023-04-20T09:48:22.679Z,102374.19
2023-04-20T09:50:51.779Z,102375.03
2023-04-20T09:53:20.843Z,102376.78
2023-04-20T09:55:51.186Z,102382.91
2023-04-20T09:58:23.979Z,102370.56
2023-04-20T10:00:52.432Z,102374.97
2023-04-20T10:03:22.595Z,102372.31
2023-04-20T10:05:53.001Z,102377.56
2023-04-20T10:08:21.786Z,102373.16
2023-04-20T10:10:52.436Z,102381.91
2023-04-20T10:13:22.635Z,102371.34
2023-04-20T10:15:53.167Z,102374.00
2023-04-20T10:18:25.755Z,102380.16
2023-04-20T10:21:11.820Z,102379.25
2023-04-20T10:23:53.483Z,102375.69
2023-04-20T10:26:22.102Z,102379.22
2023-04-20T10:28:50.699Z,102385.38
2023-04-20T10:31:19.054Z,102378.34
2023-04-20T10:33:57.336Z,102385.38
2023-04-20T10:36:35.189Z,102380.09
2023-04-20T10:39:23.866Z,102371.31
2023-04-20T10:42:05.409Z,102368.59
2023-04-20T10:44:35.397Z,102372.06
2023-04-20T10:47:03.752Z,102365.91
2023-04-20T10:49:33.083Z,102373.81
2023-04-20T10:52:01.570Z,102377.28
2023-04-20T10:54:39.789Z,102376.44
2023-04-20T10:57:10.548Z,102365.84
2023-04-20T10:59:39.908Z,102376.38
2023-04-20T11:02:11.355Z,102372.00
2023-04-20T11:04:39.682Z,102368.50
2023-04-20T11:07:09.826Z,102366.72
2023-04-20T11:09:39.294Z,102372.00
2023-04-20T11:12:15.751Z,102367.63
2023-04-20T11:14:55.346Z,102361.41
2023-04-20T11:17:43.838Z,102371.94
2023-04-20T11:20:15.310Z,102377.25
2023-04-20T11:22:44.526Z,102374.59
2023-04-20T11:25:13.801Z,102378.09
2023-04-20T11:27:44.027Z,102373.69
2023-04-20T11:30:12.608Z,102377.19
2023-04-20T11:32:41.329Z,102380.63
2023-04-20T11:35:11.780Z,102381.41
2023-04-20T11:37:52.090Z,102368.22
2023-04-20T11:40:20.500Z,102369.06
2023-04-20T11:42:48.765Z,102364.63
2023-04-20T11:45:17.187Z,102357.59
2023-04-20T11:47:46.748Z,102356.72
2023-04-20T11:50:15.324Z,102356.72
2023-04-20T11:52:43.651Z,102353.16
2023-04-20T11:55:12.371Z,102353.19
2023-04-20T11:57:40.645Z,102354.06
2023-04-20T12:00:09.748Z,102355.84
2023-04-20T12:02:38.126Z,102351.44
2023-04-20T12:05:07.034Z,102355.78
2023-04-20T12:07:35.383Z,102358.38
2023-04-20T12:10:04.890Z,102358.34
2023-04-20T12:12:33.101Z,102353.94
2023-04-20T12:15:01.412Z,102364.50
2023-04-20T12:17:29.687Z,102356.56
2023-04-20T12:19:58.789Z,102354.78
2023-04-20T12:22:27.110Z,102365.31
2023-04-20T12:24:55.353Z,102361.81
2023-04-20T12:27:23.660Z,102363.56
2023-04-20T12:29:51.988Z,102361.75
2023-04-20T12:32:20.257Z,102363.47
2023-04-20T12:34:48.695Z,102364.31
2023-04-20T12:37:17.003Z,102355.56
2023-04-20T12:39:45.325Z,102366.94
2023-04-20T12:42:13.965Z,102373.13
2023-04-20T12:44:42.333Z,102374.00
2023-04-20T12:47:10.698Z,102381.88
2023-04-20T12:49:39.017Z,102378.34
2023-04-20T12:52:08.214Z,102381.00
2023-04-20T12:54:36.558Z,102383.59
2023-04-20T12:57:04.878Z,102377.38
2023-04-20T12:59:33.111Z,102376.44
2023-04-20T13:02:01.550Z,102378.16
2023-04-20T13:04:30.151Z,102371.06
2023-04-20T13:06:58.483Z,102376.34
2023-04-20T13:09:27.891Z,102375.47
2023-04-20T13:11:56.311Z,102378.94
2023-04-20T13:14:24.666Z,102382.44
2023-04-20T13:16:55.197Z,102385.13
2023-04-20T13:19:24.051Z,102386.00
2023-04-20T13:21:52.315Z,102394.78
2023-04-20T13:24:20.753Z,102397.47
2023-04-20T13:26:49.852Z,102393.97
2023-04-20T13:29:18.260Z,102393.03
2023-04-20T13:31:48.419Z,102394.78
2023-04-20T13:34:17.185Z,102400.88
2023-04-20T13:36:46.667Z,102406.19
2023-04-20T13:39:15.197Z,102407.97
2023-04-20T13:41:43.778Z,102412.41
2023-04-20T13:44:16.854Z,102407.94
2023-04-20T13:46:46.988Z,102409.69
2023-04-20T13:49:17.620Z,102406.19
2023-04-20T13:51:45.902Z,102406.25
2023-04-20T13:54:14.201Z,102413.28
2023-04-20T13:56:42.640Z,102418.59
2023-04-20T13:59:10.989Z,102413.34
2023-04-20T14:01:39.868Z,102417.78
2023-04-20T14:04:09.982Z,102420.44
2023-04-20T14:06:39.555Z,102422.25
2023-04-20T14:09:08.027Z,102431.94
2023-04-20T14:11:36.357Z,102434.63
2023-04-20T14:14:04.728Z,102440.84
2023-04-20T14:16:33.019Z,102437.38
2023-04-20T14:19:01.798Z,102438.31
2023-04-20T14:21:30.030Z,102446.34
2023-04-20T14:23:58.464Z,102451.66
2023-04-20T14:26:28.344Z,102454.38
2023-04-20T14:28:56.833Z,102456.19
2023-04-20T14:31:25.410Z,102464.16
2023-04-20T14:33:53.728Z,102463.41
2023-04-20T14:36:21.980Z,102467.00
2023-04-20T14:38:50.240Z,102467.09
2023-04-20T14:41:18.553Z,102469.81
2023-04-20T14:43:46.844Z,102475.22
2023-04-20T14:46:15.220Z,102464.75
2023-04-20T14:48:47.043Z,102465.72
2023-04-20T14:51:16.992Z,102463.16
2023-04-20T14:53:45.353Z,102470.28
2023-04-20T14:56:13.906Z,102477.41
2023-04-20T14:58:43.226Z,102469.56
2023-04-20T15:01:12.172Z,102468.72
2023-04-20T15:03:40.755Z,102476.72
2023-04-20T15:06:09.459Z,102476.75
2023-04-20T15:08:37.724Z,102482.97
2023-04-20T15:11:06.586Z,102474.19
2023-04-20T15:13:34.880Z,102484.81
2023-04-20T15:16:03.198Z,102486.59
2023-04-20T15:18:31.555Z,102475.09
2023-04-20T15:20:59.919Z,102483.94
2023-04-20T15:23:30.779Z,102475.13
2023-04-20T15:25:59.003Z,102483.97
2023-04-20T15:28:27.343Z,102488.34
2023-04-20T15:30:55.771Z,102484.78
2023-04-20T15:33:24.107Z,102483.88
2023-04-20T15:35:52.473Z,102479.44
2023-04-20T15:38:20.822Z,102475.03
2023-04-20T15:40:49.347Z,102479.41
2023-04-20T15:43:17.818Z,102477.59
2023-04-20T15:45:46.339Z,102483.72
2023-04-20T15:48:14.793Z,102488.13
2023-04-20T15:50:43.120Z,102496.94
2023-04-20T15:53:11.430Z,102484.53
2023-04-20T15:55:40.653Z,102489.78
2023-04-20T15:58:08.943Z,102485.31
2023-04-20T16:00:37.542Z,102488.81
2023-04-20T16:03:06.035Z,102486.97
2023-04-20T16:05:34.691Z,102486.03
2023-04-20T16:08:03.088Z,102483.31
2023-04-20T16:10:31.381Z,102485.03
2023-04-20T16:12:59.646Z,102495.59
2023-04-20T16:15:27.954Z,102499.03
2023-04-20T16:17:56.277Z,102492.78
2023-04-20T16:20:24.590Z,102502.44
2023-04-20T16:22:52.908Z,102499.69
2023-04-20T16:25:23.600Z,102497.84
2023-04-20T16:27:52.617Z,102495.13
2023-04-20T16:30:21.287Z,102488.84
2023-04-20T16:32:50.195Z,102491.44
2023-04-20T16:35:18.745Z,102493.97
2023-04-20T16:37:47.717Z,102491.25
2023-04-20T16:40:16.147Z,102496.41
2023-04-20T16:42:44.460Z,102494.47
2023-04-20T16:45:12.804Z,102493.31
2023-04-20T16:47:41.482Z,102502.84
2023-04-20T16:50:10.930Z,102493.06
2023-04-20T16:52:39.210Z,102496.63
2023-04-20T16:55:08.045Z,102487.81
2023-04-20T16:57:36.779Z,102486.06
2023-04-20T17:00:10.250Z,102490.41
2023-04-20T17:02:39.019Z,102491.16
2023-04-20T17:05:08.182Z,102491.00
2023-04-20T17:07:37.859Z,102484.56
2023-04-20T17:10:06.463Z,102484.34
2023-04-20T17:12:34.753Z,102498.38
2023-04-20T17:15:03.387Z,102493.72
2023-04-20T17:17:31.758Z,102498.97
2023-04-20T17:20:00.180Z,102500.63
2023-04-20T17:22:28.536Z,102504.13
2023-04-20T17:24:56.781Z,102501.38
2023-04-20T17:27:25.091Z,102501.16
2023-04-20T17:29:53.431Z,102508.13
2023-04-20T17:32:21.738Z,102509.78
2023-04-20T17:34:52.105Z,102505.09
2023-04-20T17:37:20.682Z,102505.88
2023-04-20T17:39:49.005Z,102505.81
2023-04-20T17:42:18.657Z,102508.28
2023-04-20T17:44:47.497Z,102506.28
2023-04-20T17:47:18.554Z,102502.50
2023-04-20T17:49:46.902Z,102505.72
2023-04-20T17:52:20.189Z,102503.72
2023-04-20T17:54:48.798Z,102502.78
2023-04-20T17:57:17.254Z,102504.44
2023-04-20T17:59:45.594Z,102504.22
2023-04-20T18:02:14.619Z,102511.16
2023-04-20T18:04:43.410Z,102505.66
2023-04-20T18:07:13.958Z,102505.38
2023-04-20T18:09:42.264Z,102507.06
2023-04-20T18:12:13.826Z,102519.28
2023-04-20T18:14:43.274Z,102510.09
2023-04-20T18:17:11.591Z,102506.44
2023-04-20T18:19:41.727Z,102516.78
2023-04-20T18:22:10.070Z,102506.72
2023-04-20T18:24:38.926Z,102504.84
2023-04-20T18:27:07.223Z,102502.13
2023-04-20T18:29:36.136Z,102508.97
2023-04-20T18:32:04.676Z,102511.22
2023-04-20T18:34:32.982Z,102512.94
2023-04-20T18:37:01.346Z,102515.50
2023-04-20T18:39:30.708Z,102514.31
2023-04-20T18:41:59.057Z,102508.78
2023-04-20T18:44:29.185Z,102508.53
2023-04-20T18:46:57.653Z,102506.44
2023-04-20T18:49:26.062Z,102510.69
2023-04-20T18:51:54.460Z,102512.16
2023-04-20T18:54:22.852Z,102511.78
2023-04-20T18:56:51.303Z,102506.72
2023-04-20T18:59:19.627Z,102494.78
2023-04-20T19:01:49.040Z,102498.19
2023-04-20T19:04:18.148Z,102499.84
2023-04-20T19:06:46.827Z,102505.06
2023-04-20T19:09:15.473Z,102499.69
2023-04-20T19:11:43.873Z,102498.81
2023-04-20T19:14:13.317Z,102490.53
2023-04-20T19:16:41.710Z,102487.38
2023-04-20T19:19:10.678Z,102490.63
2023-04-20T19:21:38.953Z,102478.56
2023-04-20T19:24:07.514Z,102481.31
2023-04-20T19:26:35.873Z,102474.94
2023-04-20T19:29:04.249Z,102478.72
2023-04-20T19:31:38.694Z,102478.06
2023-04-20T19:34:07.283Z,102480.41
2023-04-20T19:36:36.260Z,102479.22
2023-04-20T19:39:04.989Z,102477.91
2023-04-20T19:41:33.236Z,102475.59
2023-04-20T19:44:01.825Z,102472.81
2023-04-20T19:46:30.138Z,102471.69
2023-04-20T19:48:58.540Z,102471.22
2023-04-20T19:51:26.994Z,102457.16
2023-04-20T19:53:55.489Z,102458.06
2023-04-20T19:56:23.767Z,102457.03
2023-04-20T19:58:52.090Z,102456.84
2023-04-20T20:01:20.982Z,102452.53
2023-04-20T20:03:49.614Z,102452.22
2023-04-20T20:06:18.084Z,102453.41
2023-04-20T20:08:47.019Z,102447.63
2023-04-20T20:11:15.448Z,102447.22
2023-04-20T20:13:43.738Z,102444.25
2023-04-20T20:16:13.105Z,102446.06
2023-04-20T20:18:41.412Z,102445.75
2023-04-20T20:23:37.776Z,102444.78
2023-04-20T20:26:06.190Z,102432.19
2023-04-20T20:28:34.486Z,102435.25
2023-04-20T20:31:02.814Z,102431.19
2023-04-20T20:33:31.300Z,102425.22
2023-04-20T20:35:59.560Z,102432.72
2023-04-20T20:38:31.793Z,102429.50
2023-04-20T20:41:00.538Z,102430.34
2023-04-20T20:43:29.470Z,102427.63
2023-04-20T20:45:57.744Z,102422.59
2023-04-20T20:48:26.206Z,102421.19
2023-04-20T20:50:54.438Z,102418.03
2023-04-20T20:53:22.706Z,102418.44
2023-04-20T20:55:51.023Z,102415.38
2023-04-20T20:58:19.314Z,102409.75
2023-04-20T21:00:48.059Z,102417.00
2023-04-20T21:03:16.688Z,102405.16
2023-04-20T21:05:45.186Z,102406.91
2023-04-20T21:08:13.824Z,102403.41
2023-04-20T21:10:42.092Z,102409.72
2023-04-20T21:13:10.477Z,102399.19
2023-04-20T21:15:38.732Z,102398.97
2023-04-20T21:18:07.239Z,102393.78
2023-04-20T21:20:35.563Z,102401.19
2023-04-20T21:23:03.890Z,102399.44
2023-04-20T21:25:32.177Z,102395.00
2023-04-20T21:28:00.496Z,102388.81
2023-04-20T21:30:29.217Z,102388.19
2023-04-20T21:32:57.573Z,102389.50
2023-04-20T21:35:25.962Z,102384.50
2023-04-20T21:37:54.278Z,102390.34
2023-04-20T21:40:23.576Z,102377.00
2023-04-20T21:42:51.910Z,102373.84
2023-04-20T21:45:20.214Z,102373.56
2023-04-20T21:47:48.850Z,102373.13
2023-04-20T21:50:17.282Z,102369.22
2023-04-20T21:52:45.552Z,102364.41
2023-04-20T21:55:14.054Z,102365.69
2023-04-20T21:57:42.330Z,102352.34
2023-04-20T22:00:11.230Z,102347.03
2023-04-20T22:02:39.649Z,102350.72
2023-04-20T22:05:09.576Z,102348.06
2023-04-20T22:07:37.993Z,102344.47
2023-04-20T22:10:07.815Z,102343.03
2023-04-20T22:12:41.142Z,102341.16
2023-04-20T22:15:14.929Z,102338.41
2023-04-20T22:17:46.448Z,102325.59
2023-04-20T22:20:17.775Z,102329.28
2023-04-20T22:22:46.570Z,102319.03
2023-04-20T22:25:14.908Z,102313.03
2023-04-20T22:27:43.255Z,102313.75
2023-04-20T22:30:11.788Z,102310.63
2023-04-20T22:32:40.162Z,102306.75
2023-04-20T22:35:08.886Z,102313.16
2023-04-20T22:37:37.332Z,102314.59
2023-04-20T22:40:09.120Z,102305.66
2023-04-20T22:42:37.422Z,102306.84
2023-04-20T22:45:06.806Z,102304.16
2023-04-20T22:47:35.069Z,102300.75
2023-04-20T22:50:04.097Z,102302.88
2023-04-20T22:52:32.865Z,102301.16
2023-04-20T22:55:01.657Z,102296.25
2023-04-20T22:57:29.940Z,102292.13
2023-04-20T22:59:58.386Z,102291.44
2023-04-20T23:02:27.732Z,102283.03
2023-04-20T23:04:56.719Z,102294.06
2023-04-20T23:07:25.096Z,102282.69
2023-04-20T23:09:54.616Z,102287.13
2023-04-20T23:12:23.001Z,102284.97
2023-04-20T23:14:51.636Z,102290.03
2023-04-20T23:17:19.909Z,102282.31
2023-04-20T23:19:48.428Z,102280.47
2023-04-20T23:22:16.770Z,102288.16
2023-04-20T23:24:45.047Z,102283.34
2023-04-20T23:27:13.315Z,102285.09
2023-04-20T23:29:42.355Z,102283.31
2023-04-20T23:32:10.788Z,102276.88
2023-04-20T23:34:39.130Z,102278.44
2023-04-20T23:37:07.418Z,102283.00
2023-04-20T23:39:39.765Z,102278.56
2023-04-20T23:42:08.182Z,102275.53
2023-04-20T23:44:36.497Z,102284.81
2023-04-20T23:47:04.855Z,102278.47
2023-04-20T23:49:33.102Z,102279.50
2023-04-20T23:52:01.462Z,102280.41
2023-04-20T23:54:31.206Z,102293.25
2023-04-20T23:57:00.902Z,102290.94
2023-04-20T23:59:29.148Z,102297.56
